sensor_id;sensor_type;location;lat;lon;timestamp;pressure;altitude;pressure_sealevel;temperature;humidity
64189;BME280;50493;50.970;10.082;2023-02-18T00:00:35;99711.41;;;9.30;71.19
64189;BME280;50493;50.970;10.082;2023-02-18T00:03:02;99711.28;;;9.41;70.51
64189;BME280;50493;50.970;10.082;2023-02-18T00:05:27;99701.91;;;9.26;70.74
64189;BME280;50493;50.970;10.082;2023-02-18T00:07:53;99700.44;;;9.01;73.37
64189;BME280;50493;50.970;10.082;2023-02-18T00:10:19;99717.72;;;9.08;73.00
64189;BME280;50493;50.970;10.082;2023-02-18T00:12:44;99708.06;;;9.21;72.12
64189;BME280;50493;50.970;10.082;2023-02-18T00:15:10;99700.38;;;9.78;68.76
64189;BME280;50493;50.970;10.082;2023-02-18T00:17:36;99705.22;;;9.41;71.45
64189;BME280;50493;50.970;10.082;2023-02-18T00:20:04;99708.13;;;9.86;67.84
64189;BME280;50493;50.970;10.082;2023-02-18T00:22:30;99718.03;;;9.58;70.03
64189;BME280;50493;50.970;10.082;2023-02-18T00:24:55;99721.97;;;9.20;72.13
64189;BME280;50493;50.970;10.082;2023-02-18T00:27:20;99712.00;;;9.53;69.98
64189;BME280;50493;50.970;10.082;2023-02-18T00:29:46;99713.72;;;9.55;70.02
64189;BME280;50493;50.970;10.082;2023-02-18T00:32:11;99718.03;;;9.58;70.69
64189;BME280;50493;50.970;10.082;2023-02-18T00:34:36;99709.41;;;9.54;70.95
64189;BME280;50493;50.970;10.082;2023-02-18T00:37:03;99713.09;;;9.36;72.04
64189;BME280;50493;50.970;10.082;2023-02-18T00:39:29;99714.25;;;9.09;73.57
64189;BME280;50493;50.970;10.082;2023-02-18T00:41:54;99711.66;;;9.09;72.82
64189;BME280;50493;50.970;10.082;2023-02-18T00:44:20;99719.16;;;8.42;76.23
64189;BME280;50493;50.970;10.082;2023-02-18T00:46:45;99729.69;;;8.25;77.19
64189;BME280;50493;50.970;10.082;2023-02-18T00:49:12;99720.44;;;7.77;80.16
64189;BME280;50493;50.970;10.082;2023-02-18T00:51:38;99722.06;;;8.00;79.25
64189;BME280;50493;50.970;10.082;2023-02-18T00:54:05;99720.19;;;8.21;77.75
64189;BME280;50493;50.970;10.082;2023-02-18T00:56:30;99716.00;;;7.95;78.94
64189;BME280;50493;50.970;10.082;2023-02-18T00:58:55;99715.66;;;8.44;76.91
64189;BME280;50493;50.970;10.082;2023-02-18T01:01:21;99708.34;;;8.90;74.08
64189;BME280;50493;50.970;10.082;2023-02-18T01:03:46;99707.97;;;8.29;77.34
64189;BME280;50493;50.970;10.082;2023-02-18T01:06:12;99719.44;;;8.00;78.91
64189;BME280;50493;50.970;10.082;2023-02-18T01:08:39;99717.66;;;8.05;78.56
64189;BME280;50493;50.970;10.082;2023-02-18T01:11:08;99716.69;;;8.25;77.85
64189;BME280;50493;50.970;10.082;2023-02-18T01:13:34;99725.25;;;8.38;76.97
64189;BME280;50493;50.970;10.082;2023-02-18T01:16:00;99721.16;;;8.04;77.98
64189;BME280;50493;50.970;10.082;2023-02-18T01:18:25;99722.06;;;7.95;78.63
64189;BME280;50493;50.970;10.082;2023-02-18T01:20:51;99710.53;;;8.32;77.23
64189;BME280;50493;50.970;10.082;2023-02-18T01:23:17;99713.63;;;8.80;74.42
64189;BME280;50493;50.970;10.082;2023-02-18T01:25:43;99708.88;;;8.25;76.62
64189;BME280;50493;50.970;10.082;2023-02-18T01:28:11;99717.50;;;8.33;76.51
64189;BME280;50493;50.970;10.082;2023-02-18T01:30:37;99730.88;;;8.94;73.87
64189;BME280;50493;50.970;10.082;2023-02-18T01:33:02;99720.63;;;8.74;75.20
64189;BME280;50493;50.970;10.082;2023-02-18T01:35:28;99727.50;;;8.86;74.65
64189;BME280;50493;50.970;10.082;2023-02-18T01:37:53;99727.81;;;8.45;76.40
64189;BME280;50493;50.970;10.082;2023-02-18T01:40:22;99717.53;;;8.24;76.87
64189;BME280;50493;50.970;10.082;2023-02-18T01:42:48;99712.16;;;8.49;75.53
64189;BME280;50493;50.970;10.082;2023-02-18T01:45:41;99735.06;;;8.02;78.39
64189;BME280;50493;50.970;10.082;2023-02-18T01:48:14;99712.66;;;8.92;74.61
64189;BME280;50493;50.970;10.082;2023-02-18T01:50:42;99717.22;;;8.67;74.57
64189;BME280;50493;50.970;10.082;2023-02-18T01:53:08;99717.50;;;8.27;76.70
64189;BME280;50493;50.970;10.082;2023-02-18T01:55:35;99724.53;;;8.19;77.89
64189;BME280;50493;50.970;10.082;2023-02-18T01:58:01;99712.94;;;8.60;74.67
64189;BME280;50493;50.970;10.082;2023-02-18T02:00:26;99719.69;;;8.84;74.11
64189;BME280;50493;50.970;10.082;2023-02-18T02:02:53;99702.50;;;8.63;74.67
64189;BME280;50493;50.970;10.082;2023-02-18T02:05:20;99702.44;;;8.66;74.70
64189;BME280;50493;50.970;10.082;2023-02-18T02:07:49;99706.41;;;9.10;72.40
64189;BME280;50493;50.970;10.082;2023-02-18T02:10:15;99709.19;;;8.93;73.12
64189;BME280;50493;50.970;10.082;2023-02-18T02:12:50;99701.22;;;9.09;70.92
64189;BME280;50493;50.970;10.082;2023-02-18T02:15:27;99708.38;;;8.87;73.42
64189;BME280;50493;50.970;10.082;2023-02-18T02:18:07;99705.56;;;9.10;71.04
64189;BME280;50493;50.970;10.082;2023-02-18T02:20:53;99698.03;;;9.57;68.71
64189;BME280;50493;50.970;10.082;2023-02-18T02:23:44;99720.72;;;8.63;73.36
64189;BME280;50493;50.970;10.082;2023-02-18T02:29:43;99713.84;;;8.53;74.52
64189;BME280;50493;50.970;10.082;2023-02-18T02:32:28;99709.34;;;8.70;74.34
64189;BME280;50493;50.970;10.082;2023-02-18T02:35:00;99696.19;;;8.87;73.39
64189;BME280;50493;50.970;10.082;2023-02-18T02:37:32;99690.63;;;9.23;70.53
64189;BME280;50493;50.970;10.082;2023-02-18T02:40:11;99704.47;;;8.32;74.34
64189;BME280;50493;50.970;10.082;2023-02-18T02:42:46;99693.47;;;9.04;71.82
64189;BME280;50493;50.970;10.082;2023-02-18T02:45:20;99684.22;;;9.52;69.09
64189;BME280;50493;50.970;10.082;2023-02-18T02:47:50;99696.78;;;9.17;71.76
64189;BME280;50493;50.970;10.082;2023-02-18T02:50:25;99693.28;;;9.18;71.14
64189;BME280;50493;50.970;10.082;2023-02-18T02:52:56;99687.75;;;9.48;69.12
64189;BME280;50493;50.970;10.082;2023-02-18T02:55:23;99687.19;;;9.18;70.96
64189;BME280;50493;50.970;10.082;2023-02-18T02:57:52;99694.88;;;9.33;70.80
64189;BME280;50493;50.970;10.082;2023-02-18T03:00:20;99683.81;;;9.09;71.19
64189;BME280;50493;50.970;10.082;2023-02-18T03:03:29;99691.91;;;8.80;73.58
64189;BME280;50493;50.970;10.082;2023-02-18T03:06:14;99687.19;;;9.18;70.61
64189;BME280;50493;50.970;10.082;2023-02-18T03:08:50;99681.78;;;9.36;69.16
64189;BME280;50493;50.970;10.082;2023-02-18T03:11:21;99686.81;;;9.50;69.21
64189;BME280;50493;50.970;10.082;2023-02-18T03:13:56;99683.44;;;9.43;69.63
64189;BME280;50493;50.970;10.082;2023-02-18T03:16:27;99681.16;;;9.83;68.39
64189;BME280;50493;50.970;10.082;2023-02-18T03:19:00;99682.78;;;9.93;67.87
64189;BME280;50493;50.970;10.082;2023-02-18T03:21:31;99690.31;;;9.51;69.86
64189;BME280;50493;50.970;10.082;2023-02-18T03:24:01;99681.06;;;9.23;70.94
64189;BME280;50493;50.970;10.082;2023-02-18T03:26:27;99681.59;;;9.52;69.38
64189;BME280;50493;50.970;10.082;2023-02-18T03:28:55;99681.34;;;9.70;68.42
64189;BME280;50493;50.970;10.082;2023-02-18T03:31:25;99679.81;;;9.54;70.02
64189;BME280;50493;50.970;10.082;2023-02-18T03:33:55;99691.22;;;9.46;69.00
64189;BME280;50493;50.970;10.082;2023-02-18T03:36:23;99686.66;;;9.64;69.68
64189;BME280;50493;50.970;10.082;2023-02-18T03:38:55;99680.72;;;10.13;66.54
64189;BME280;50493;50.970;10.082;2023-02-18T03:41:23;99681.56;;;9.55;69.20
64189;BME280;50493;50.970;10.082;2023-02-18T03:43:49;99676.00;;;9.79;68.07
64189;BME280;50493;50.970;10.082;2023-02-18T03:46:14;99685.25;;;9.38;69.90
64189;BME280;50493;50.970;10.082;2023-02-18T03:48:39;99688.88;;;9.25;70.53
64189;BME280;50493;50.970;10.082;2023-02-18T03:51:05;99686.44;;;9.79;67.96
64189;BME280;50493;50.970;10.082;2023-02-18T03:53:30;99686.25;;;9.95;67.27
64189;BME280;50493;50.970;10.082;2023-02-18T03:55:56;99673.19;;;9.93;67.52
64189;BME280;50493;50.970;10.082;2023-02-18T03:58:22;99671.25;;;10.08;66.91
64189;BME280;50493;50.970;10.082;2023-02-18T04:00:47;99673.91;;;9.39;70.46
64189;BME280;50493;50.970;10.082;2023-02-18T04:03:13;99660.78;;;9.45;69.65
64189;BME280;50493;50.970;10.082;2023-02-18T04:05:38;99652.59;;;9.72;68.40
64189;BME280;50493;50.970;10.082;2023-02-18T04:08:03;99646.47;;;9.77;68.29
64189;BME280;50493;50.970;10.082;2023-02-18T04:10:29;99637.78;;;10.31;65.44
64189;BME280;50493;50.970;10.082;2023-02-18T04:12:56;99639.81;;;9.55;68.91
64189;BME280;50493;50.970;10.082;2023-02-18T04:15:21;99632.41;;;9.86;67.63
64189;BME280;50493;50.970;10.082;2023-02-18T04:17:47;99629.19;;;9.67;68.81
64189;BME280;50493;50.970;10.082;2023-02-18T04:20:12;99632.34;;;9.91;67.73
64189;BME280;50493;50.970;10.082;2023-02-18T04:22:37;99623.84;;;9.76;68.89
64189;BME280;50493;50.970;10.082;2023-02-18T04:25:03;99631.50;;;9.25;70.50
64189;BME280;50493;50.970;10.082;2023-02-18T04:27:29;99629.19;;;9.67;68.80
64189;BME280;50493;50.970;10.082;2023-02-18T04:29:55;99636.47;;;9.42;68.93
64189;BME280;50493;50.970;10.082;2023-02-18T04:32:21;99621.91;;;9.91;67.22
64189;BME280;50493;50.970;10.082;2023-02-18T04:34:46;99615.91;;;9.83;67.51
64189;BME280;50493;50.970;10.082;2023-02-18T04:37:11;99607.34;;;9.73;67.36
64189;BME280;50493;50.970;10.082;2023-02-18T04:39:37;99617.44;;;9.35;69.20
64189;BME280;50493;50.970;10.082;2023-02-18T04:42:02;99612.19;;;9.38;69.49
64189;BME280;50493;50.970;10.082;2023-02-18T04:44:32;99610.41;;;9.40;69.78
64189;BME280;50493;50.970;10.082;2023-02-18T04:46:59;99615.84;;;9.25;69.44
64189;BME280;50493;50.970;10.082;2023-02-18T04:49:24;99605.69;;;9.67;68.40
64189;BME280;50493;50.970;10.082;2023-02-18T04:51:50;99613.56;;;9.66;67.86
64189;BME280;50493;50.970;10.082;2023-02-18T04:54:15;99617.53;;;9.29;69.26
64189;BME280;50493;50.970;10.082;2023-02-18T04:56:40;99611.34;;;9.36;69.26
64189;BME280;50493;50.970;10.082;2023-02-18T04:59:06;99612.47;;;9.13;70.55
64189;BME280;50493;50.970;10.082;2023-02-18T05:01:31;99605.75;;;9.64;68.28
64189;BME280;50493;50.970;10.082;2023-02-18T05:03:58;99605.03;;;9.51;68.61
64189;BME280;50493;50.970;10.082;2023-02-18T05:06:23;99604.06;;;9.60;68.04
64189;BME280;50493;50.970;10.082;2023-02-18T05:08:48;99607.06;;;9.30;69.27
64189;BME280;50493;50.970;10.082;2023-02-18T05:11:14;99603.25;;;9.55;68.68
64189;BME280;50493;50.970;10.082;2023-02-18T05:13:39;99602.72;;;9.33;68.22
64189;BME280;50493;50.970;10.082;2023-02-18T05:16:04;99596.59;;;9.34;68.72
64189;BME280;50493;50.970;10.082;2023-02-18T05:18:30;99601.25;;;9.08;70.24
64189;BME280;50493;50.970;10.082;2023-02-18T05:20:56;99598.28;;;9.36;69.34
64189;BME280;50493;50.970;10.082;2023-02-18T05:23:22;99600.53;;;9.64;67.70
64189;BME280;50493;50.970;10.082;2023-02-18T05:25:48;99591.19;;;9.48;67.61
64189;BME280;50493;50.970;10.082;2023-02-18T05:28:13;99585.94;;;9.51;67.63
64189;BME280;50493;50.970;10.082;2023-02-18T05:30:39;99590.88;;;9.68;67.61
64189;BME280;50493;50.970;10.082;2023-02-18T05:33:04;99583.22;;;9.58;67.64
64189;BME280;50493;50.970;10.082;2023-02-18T05:35:30;99587.34;;;9.72;67.30
64189;BME280;50493;50.970;10.082;2023-02-18T05:37:56;99585.03;;;9.50;66.79
64189;BME280;50493;50.970;10.082;2023-02-18T05:40:21;99574.88;;;9.89;66.09
64189;BME280;50493;50.970;10.082;2023-02-18T05:42:47;99574.69;;;10.03;65.45
64189;BME280;50493;50.970;10.082;2023-02-18T05:45:12;99576.59;;;9.92;65.26
64189;BME280;50493;50.970;10.082;2023-02-18T05:47:38;99570.28;;;9.51;67.25
64189;BME280;50493;50.970;10.082;2023-02-18T05:50:04;99558.94;;;9.53;67.26
64189;BME280;50493;50.970;10.082;2023-02-18T05:52:29;99554.66;;;9.48;67.86
64189;BME280;50493;50.970;10.082;2023-02-18T05:54:56;99552.81;;;9.56;67.71
64189;BME280;50493;50.970;10.082;2023-02-18T05:57:21;99556.25;;;9.58;68.00
64189;BME280;50493;50.970;10.082;2023-02-18T05:59:47;99549.22;;;9.63;67.55
64189;BME280;50493;50.970;10.082;2023-02-18T06:02:12;99554.50;;;9.57;68.39
64189;BME280;50493;50.970;10.082;2023-02-18T06:04:37;99548.31;;;9.64;68.35
64189;BME280;50493;50.970;10.082;2023-02-18T06:07:04;99558.19;;;9.43;69.13
64189;BME280;50493;50.970;10.082;2023-02-18T06:09:30;99554.16;;;9.78;67.56
64189;BME280;50493;50.970;10.082;2023-02-18T06:11:56;99555.63;;;9.98;66.69
64189;BME280;50493;50.970;10.082;2023-02-18T06:14:22;99555.44;;;9.54;68.97
64189;BME280;50493;50.970;10.082;2023-02-18T06:16:47;99550.84;;;9.69;69.00
64189;BME280;50493;50.970;10.082;2023-02-18T06:19:12;99554.38;;;9.66;68.84
64189;BME280;50493;50.970;10.082;2023-02-18T06:21:38;99541.59;;;9.49;69.45
64189;BME280;50493;50.970;10.082;2023-02-18T06:24:03;99541.28;;;9.68;70.12
64189;BME280;50493;50.970;10.082;2023-02-18T06:26:29;99535.47;;;9.52;70.24
64189;BME280;50493;50.970;10.082;2023-02-18T06:28:56;99543.28;;;9.52;70.20
64189;BME280;50493;50.970;10.082;2023-02-18T06:31:21;99537.81;;;9.69;70.00
64189;BME280;50493;50.970;10.082;2023-02-18T06:33:47;99532.94;;;10.00;69.05
64189;BME280;50493;50.970;10.082;2023-02-18T06:36:13;99536.53;;;9.93;68.19
64189;BME280;50493;50.970;10.082;2023-02-18T06:38:39;99529.84;;;9.76;69.98
64189;BME280;50493;50.970;10.082;2023-02-18T06:41:05;99526.09;;;9.93;69.37
64189;BME280;50493;50.970;10.082;2023-02-18T06:43:30;99521.00;;;9.87;69.61
64189;BME280;50493;50.970;10.082;2023-02-18T06:45:57;99523.56;;;9.32;71.52
64189;BME280;50493;50.970;10.082;2023-02-18T06:48:23;99524.50;;;9.26;71.68
64189;BME280;50493;50.970;10.082;2023-02-18T06:50:48;99517.31;;;9.44;70.80
64189;BME280;50493;50.970;10.082;2023-02-18T06:53:14;99503.97;;;9.64;70.40
64189;BME280;50493;50.970;10.082;2023-02-18T06:55:41;99500.13;;;9.87;69.63
64189;BME280;50493;50.970;10.082;2023-02-18T06:58:06;99496.41;;;9.45;70.78
64189;BME280;50493;50.970;10.082;2023-02-18T07:00:32;99499.56;;;9.08;72.52
64189;BME280;50493;50.970;10.082;2023-02-18T07:02:58;99491.28;;;9.38;71.92
64189;BME280;50493;50.970;10.082;2023-02-18T07:05:24;99483.75;;;9.21;71.13
64189;BME280;50493;50.970;10.082;2023-02-18T07:07:49;99486.09;;;9.36;71.97
64189;BME280;50493;50.970;10.082;2023-02-18T07:10:14;99481.81;;;9.32;71.74
64189;BME280;50493;50.970;10.082;2023-02-18T07:12:40;99478.59;;;9.15;72.15
64189;BME280;50493;50.970;10.082;2023-02-18T07:15:05;99475.19;;;9.09;72.20
64189;BME280;50493;50.970;10.082;2023-02-18T07:17:31;99474.31;;;9.10;72.35
64189;BME280;50493;50.970;10.082;2023-02-18T07:19:58;99462.34;;;8.94;73.47
64189;BME280;50493;50.970;10.082;2023-02-18T07:22:25;99468.19;;;9.68;70.02
64189;BME280;50493;50.970;10.082;2023-02-18T07:24:50;99459.72;;;8.97;72.42
64189;BME280;50493;50.970;10.082;2023-02-18T07:27:16;99452.31;;;9.30;71.33
64189;BME280;50493;50.970;10.082;2023-02-18T07:29:42;99449.94;;;9.69;69.65
64189;BME280;50493;50.970;10.082;2023-02-18T07:32:07;99447.69;;;9.46;70.75
64189;BME280;50493;50.970;10.082;2023-02-18T07:34:32;99446.78;;;9.49;69.50
64189;BME280;50493;50.970;10.082;2023-02-18T07:36:59;99456.09;;;9.65;69.71
64189;BME280;50493;50.970;10.082;2023-02-18T07:39:24;99463.09;;;9.61;70.11
64189;BME280;50493;50.970;10.082;2023-02-18T07:41:50;99456.84;;;9.70;69.29
64189;BME280;50493;50.970;10.082;2023-02-18T07:44:15;99462.03;;;9.73;68.83
64189;BME280;50493;50.970;10.082;2023-02-18T07:46:40;99463.72;;;9.21;70.86
64189;BME280;50493;50.970;10.082;2023-02-18T07:49:06;99455.88;;;9.23;71.60
64189;BME280;50493;50.970;10.082;2023-02-18T07:51:32;99451.31;;;9.37;71.50
64189;BME280;50493;50.970;10.082;2023-02-18T07:53:58;99456.19;;;9.01;72.40
64189;BME280;50493;50.970;10.082;2023-02-18T07:56:24;99461.72;;;9.39;71.67
64189;BME280;50493;50.970;10.082;2023-02-18T07:58:49;99462.75;;;9.30;71.79
64189;BME280;50493;50.970;10.082;2023-02-18T08:01:15;99464.88;;;10.09;68.90
64189;BME280;50493;50.970;10.082;2023-02-18T08:03:41;99475.59;;;9.94;69.59
64189;BME280;50493;50.970;10.082;2023-02-18T08:06:07;99472.72;;;9.58;70.37
64189;BME280;50493;50.970;10.082;2023-02-18T08:08:33;99463.94;;;9.62;72.06
64189;BME280;50493;50.970;10.082;2023-02-18T08:11:01;99475.44;;;9.52;71.05
64189;BME280;50493;50.970;10.082;2023-02-18T08:13:27;99470.06;;;9.62;71.94
64189;BME280;50493;50.970;10.082;2023-02-18T08:15:53;99475.50;;;9.47;72.57
64189;BME280;50493;50.970;10.082;2023-02-18T08:18:20;99473.78;;;9.48;72.77
64189;BME280;50493;50.970;10.082;2023-02-18T08:20:46;99466.53;;;9.65;70.45
64189;BME280;50493;50.970;10.082;2023-02-18T08:23:13;99470.38;;;9.94;71.20
64189;BME280;50493;50.970;10.082;2023-02-18T08:25:38;99477.38;;;9.39;73.41
64189;BME280;50493;50.970;10.082;2023-02-18T08:28:05;99462.44;;;9.49;73.81
64189;BME280;50493;50.970;10.082;2023-02-18T08:30:31;99458.84;;;9.56;72.74
64189;BME280;50493;50.970;10.082;2023-02-18T08:32:57;99451.09;;;9.51;73.64
64189;BME280;50493;50.970;10.082;2023-02-18T08:35:22;99454.13;;;9.25;75.05
64189;BME280;50493;50.970;10.082;2023-02-18T08:37:48;99447.31;;;9.15;76.30
64189;BME280;50493;50.970;10.082;2023-02-18T08:40:13;99441.41;;;9.02;76.73
64189;BME280;50493;50.970;10.082;2023-02-18T08:42:39;99444.38;;;9.35;76.53
64189;BME280;50493;50.970;10.082;2023-02-18T08:45:06;99441.88;;;9.30;73.98
64189;BME280;50493;50.970;10.082;2023-02-18T08:47:32;99442.03;;;9.18;75.75
64189;BME280;50493;50.970;10.082;2023-02-18T08:49:57;99450.38;;;9.41;75.76
64189;BME280;50493;50.970;10.082;2023-02-18T08:52:23;99428.91;;;9.24;74.72
64189;BME280;50493;50.970;10.082;2023-02-18T08:54:48;99436.47;;;9.39;74.63
64189;BME280;50493;50.970;10.082;2023-02-18T08:57:14;99435.22;;;9.63;73.58
64189;BME280;50493;50.970;10.082;2023-02-18T08:59:39;99434.78;;;9.38;74.54
64189;BME280;50493;50.970;10.082;2023-02-18T09:02:06;99429.22;;;9.57;71.94
64189;BME280;50493;50.970;10.082;2023-02-18T09:04:32;99429.81;;;9.21;74.46
64189;BME280;50493;50.970;10.082;2023-02-18T09:06:57;99440.00;;;9.38;74.28
64189;BME280;50493;50.970;10.082;2023-02-18T09:09:23;99431.72;;;9.11;73.72
64189;BME280;50493;50.970;10.082;2023-02-18T09:11:48;99433.72;;;9.49;72.99
64189;BME280;50493;50.970;10.082;2023-02-18T09:14:14;99438.38;;;9.84;71.18
64189;BME280;50493;50.970;10.082;2023-02-18T09:16:40;99437.09;;;9.55;71.68
64189;BME280;50493;50.970;10.082;2023-02-18T09:19:07;99435.94;;;9.73;71.67
64189;BME280;50493;50.970;10.082;2023-02-18T09:21:33;99441.69;;;9.39;72.54
64189;BME280;50493;50.970;10.082;2023-02-18T09:23:58;99436.31;;;9.52;71.79
64189;BME280;50493;50.970;10.082;2023-02-18T09:26:24;99438.22;;;9.40;72.68
64189;BME280;50493;50.970;10.082;2023-02-18T09:28:52;99428.34;;;9.58;71.69
64189;BME280;50493;50.970;10.082;2023-02-18T09:31:20;99431.38;;;9.33;72.21
64189;BME280;50493;50.970;10.082;2023-02-18T09:33:49;99430.84;;;9.11;73.50
64189;BME280;50493;50.970;10.082;2023-02-18T09:36:17;99432.22;;;9.34;72.62
64189;BME280;50493;50.970;10.082;2023-02-18T09:38:43;99432.63;;;9.62;71.16
64189;BME280;50493;50.970;10.082;2023-02-18T09:41:14;99428.28;;;9.62;71.21
64189;BME280;50493;50.970;10.082;2023-02-18T09:43:45;99434.28;;;9.69;70.29
64189;BME280;50493;50.970;10.082;2023-02-18T09:46:17;99443.84;;;9.69;70.85
64189;BME280;50493;50.970;10.082;2023-02-18T09:48:44;99439.56;;;9.10;73.17
64189;BME280;50493;50.970;10.082;2023-02-18T09:51:12;99438.53;;;9.22;72.32
64189;BME280;50493;50.970;10.082;2023-02-18T09:53:40;99451.22;;;9.43;71.71
64189;BME280;50493;50.970;10.082;2023-02-18T09:56:05;99428.03;;;9.25;72.67
64189;BME280;50493;50.970;10.082;2023-02-18T09:58:32;99417.59;;;9.25;72.55
64189;BME280;50493;50.970;10.082;2023-02-18T10:01:03;99422.94;;;9.16;73.35
64189;BME280;50493;50.970;10.082;2023-02-18T10:03:29;99421.66;;;9.43;70.88
64189;BME280;50493;50.970;10.082;2023-02-18T10:05:58;99414.88;;;9.33;70.74
64189;BME280;50493;50.970;10.082;2023-02-18T10:08:27;99419.66;;;9.59;70.58
64189;BME280;50493;50.970;10.082;2023-02-18T10:10:55;99406.28;;;9.26;72.17
64189;BME280;50493;50.970;10.082;2023-02-18T10:13:22;99405.03;;;9.49;71.96
64189;BME280;50493;50.970;10.082;2023-02-18T10:15:48;99402.78;;;9.25;72.42
64189;BME280;50493;50.970;10.082;2023-02-18T10:18:20;99401.16;;;9.71;69.59
64189;BME280;50493;50.970;10.082;2023-02-18T10:20:48;99397.28;;;9.94;66.07
64189;BME280;50493;50.970;10.082;2023-02-18T10:23:15;99389.22;;;9.58;70.44
64189;BME280;50493;50.970;10.082;2023-02-18T10:25:43;99400.66;;;9.51;68.21
64189;BME280;50493;50.970;10.082;2023-02-18T10:28:11;99403.03;;;9.11;70.87
64189;BME280;50493;50.970;10.082;2023-02-18T10:30:39;99417.41;;;9.37;69.48
64189;BME280;50493;50.970;10.082;2023-02-18T10:33:20;99416.19;;;9.02;71.58
64189;BME280;50493;50.970;10.082;2023-02-18T10:35:52;99424.38;;;9.35;70.46
64189;BME280;50493;50.970;10.082;2023-02-18T10:38:23;99423.59;;;9.30;68.54
64189;BME280;50493;50.970;10.082;2023-02-18T10:40:58;99415.66;;;9.36;68.73
64189;BME280;50493;50.970;10.082;2023-02-18T10:43:34;99421.47;;;8.96;74.80
64189;BME280;50493;50.970;10.082;2023-02-18T10:46:13;99416.97;;;9.09;72.59
64189;BME280;50493;50.970;10.082;2023-02-18T10:49:01;99410.00;;;9.64;68.40
64189;BME280;50493;50.970;10.082;2023-02-18T10:51:31;99407.78;;;9.89;66.34
64189;BME280;50493;50.970;10.082;2023-02-18T10:53:57;99383.50;;;9.86;65.74
64189;BME280;50493;50.970;10.082;2023-02-18T10:56:34;99386.00;;;9.43;69.83
64189;BME280;50493;50.970;10.082;2023-02-18T10:59:08;99384.28;;;9.42;68.48
64189;BME280;50493;50.970;10.082;2023-02-18T11:01:34;99375.09;;;9.18;71.99
64189;BME280;50493;50.970;10.082;2023-02-18T11:04:07;99372.53;;;9.17;71.33
64189;BME280;50493;50.970;10.082;2023-02-18T11:06:38;99368.81;;;9.30;66.14
64189;BME280;50493;50.970;10.082;2023-02-18T11:09:05;99361.00;;;9.30;65.58
64189;BME280;50493;50.970;10.082;2023-02-18T11:11:32;99379.06;;;9.39;71.46
64189;BME280;50493;50.970;10.082;2023-02-18T11:14:00;99366.41;;;9.69;66.01
64189;BME280;50493;50.970;10.082;2023-02-18T11:16:37;99369.16;;;9.61;68.48
64189;BME280;50493;50.970;10.082;2023-02-18T11:19:03;99365.69;;;10.06;65.79
64189;BME280;50493;50.970;10.082;2023-02-18T11:21:30;99366.88;;;9.41;69.45
64189;BME280;50493;50.970;10.082;2023-02-18T11:23:56;99361.06;;;9.75;64.28
64189;BME280;50493;50.970;10.082;2023-02-18T11:26:26;99362.50;;;9.43;69.18
64189;BME280;50493;50.970;10.082;2023-02-18T11:28:57;99368.28;;;9.08;74.03
64189;BME280;50493;50.970;10.082;2023-02-18T11:31:26;99359.34;;;9.23;72.93
64189;BME280;50493;50.970;10.082;2023-02-18T11:33:56;99375.28;;;9.07;73.86
64189;BME280;50493;50.970;10.082;2023-02-18T11:36:24;99365.88;;;9.49;69.26
64189;BME280;50493;50.970;10.082;2023-02-18T11:38:54;99349.28;;;9.53;70.81
64189;BME280;50493;50.970;10.082;2023-02-18T11:41:21;99340.59;;;9.52;68.61
64189;BME280;50493;50.970;10.082;2023-02-18T11:43:53;99332.75;;;9.54;65.78
64189;BME280;50493;50.970;10.082;2023-02-18T11:46:20;99347.75;;;9.42;67.16
64189;BME280;50493;50.970;10.082;2023-02-18T11:48:47;99345.94;;;9.44;67.45
64189;BME280;50493;50.970;10.082;2023-02-18T11:51:17;99346.00;;;9.41;65.70
64189;BME280;50493;50.970;10.082;2023-02-18T11:53:55;99345.56;;;9.66;70.88
64189;BME280;50493;50.970;10.082;2023-02-18T11:56:24;99362.13;;;9.15;73.44
64189;BME280;50493;50.970;10.082;2023-02-18T11:58:50;99361.34;;;9.08;75.39
64189;BME280;50493;50.970;10.082;2023-02-18T12:01:21;99348.28;;;9.61;70.45
64189;BME280;50493;50.970;10.082;2023-02-18T12:03:55;99347.03;;;9.33;72.21
64189;BME280;50493;50.970;10.082;2023-02-18T12:06:27;99357.09;;;9.01;74.56
64189;BME280;50493;50.970;10.082;2023-02-18T12:08:59;99361.97;;;8.65;78.52
64189;BME280;50493;50.970;10.082;2023-02-18T12:11:30;99363.84;;;9.15;76.20
64189;BME280;50493;50.970;10.082;2023-02-18T12:13:57;99356.28;;;8.99;76.08
64189;BME280;50493;50.970;10.082;2023-02-18T12:16:28;99371.13;;;8.92;76.29
64189;BME280;50493;50.970;10.082;2023-02-18T12:19:16;99373.31;;;8.61;78.31
64189;BME280;50493;50.970;10.082;2023-02-18T12:21:55;99365.06;;;8.90;75.66
64189;BME280;50493;50.970;10.082;2023-02-18T12:24:34;99352.38;;;8.67;76.77
64189;BME280;50493;50.970;10.082;2023-02-18T12:27:11;99353.25;;;8.66;76.51
64189;BME280;50493;50.970;10.082;2023-02-18T12:29:51;99355.44;;;8.94;74.62
64189;BME280;50493;50.970;10.082;2023-02-18T12:32:32;99355.94;;;8.60;77.99
64189;BME280;50493;50.970;10.082;2023-02-18T12:35:12;99365.34;;;8.72;77.02
64189;BME280;50493;50.970;10.082;2023-02-18T12:37:54;99364.13;;;8.98;75.18
64189;BME280;50493;50.970;10.082;2023-02-18T12:40:51;99359.19;;;8.77;75.69
64189;BME280;50493;50.970;10.082;2023-02-18T12:43:31;99367.94;;;8.73;76.82
64189;BME280;50493;50.970;10.082;2023-02-18T12:46:14;99363.91;;;8.49;78.98
64189;BME280;50493;50.970;10.082;2023-02-18T12:48:53;99369.31;;;8.99;73.96
64189;BME280;50493;50.970;10.082;2023-02-18T12:51:36;99361.88;;;8.70;76.61
64189;BME280;50493;50.970;10.082;2023-02-18T12:54:19;99375.50;;;8.89;75.83
64189;BME280;50493;50.970;10.082;2023-02-18T12:57:00;99368.13;;;8.58;77.66
64189;BME280;50493;50.970;10.082;2023-02-18T12:59:45;99365.81;;;8.99;69.04
64189;BME280;50493;50.970;10.082;2023-02-18T13:02:30;99358.72;;;8.49;77.70
64189;BME280;50493;50.970;10.082;2023-02-18T13:05:08;99370.50;;;8.75;76.31
64189;BME280;50493;50.970;10.082;2023-02-18T13:08:02;99359.44;;;8.59;76.93
64189;BME280;50493;50.970;10.082;2023-02-18T13:10:57;99363.56;;;8.74;76.70